createdAt,value
2023-03-06T00:05:33.602Z,1.64
2023-03-06T00:15:35.754Z,1.57
2023-03-06T00:25:38.758Z,1.65
2023-03-06T00:35:41.432Z,1.49
2023-03-06T00:45:43.633Z,1.49
2023-03-06T00:55:45.905Z,1.17
2023-03-06T01:05:48.049Z,1.56
2023-03-06T01:15:50.190Z,1.68
2023-03-06T01:25:52.327Z,1.43
2023-03-06T01:35:55.628Z,1.71
2023-03-06T01:46:18.415Z,1.71
2023-03-06T01:56:20.778Z,1.84
2023-03-06T02:06:23.090Z,1.94
2023-03-06T02:16:28.972Z,1.72
2023-03-06T02:26:31.997Z,1.92
2023-03-06T02:36:38.505Z,1.39
2023-03-06T02:46:42.455Z,1.99
2023-03-06T02:56:45.847Z,1.86
2023-03-06T03:06:48.030Z,1.59
2023-03-06T03:16:50.334Z,1.12
2023-03-06T03:26:52.993Z,1.04
2023-03-06T03:36:57.756Z,1.39
2023-03-06T03:46:59.960Z,1.14
2023-03-06T03:57:02.182Z,1.55
2023-03-06T04:07:09.149Z,1.51
2023-03-06T04:17:12.235Z,0.95
2023-03-06T04:27:14.823Z,1.75
2023-03-06T04:37:22.373Z,1.36
2023-03-06T04:47:24.851Z,1.74
2023-03-06T04:57:26.945Z,1.03
2023-03-06T05:07:29.021Z,1.36
2023-03-06T05:17:31.087Z,0.74
2023-03-06T05:27:33.501Z,1.12
2023-03-06T05:37:35.569Z,1.05
2023-03-06T05:47:37.904Z,1.63
2023-03-06T05:57:40.039Z,1.17
2023-03-06T06:07:42.390Z,1.28
2023-03-06T06:17:44.701Z,0.75
2023-03-06T06:27:46.759Z,1.23
2023-03-06T06:37:49.053Z,0.75
2023-03-06T06:47:51.251Z,1.29
2023-03-06T06:57:53.392Z,0.74
2023-03-06T07:07:55.477Z,1.59
2023-03-06T07:17:57.627Z,0.92
2023-03-06T07:27:59.711Z,1.08
2023-03-06T07:38:01.874Z,0.93
2023-03-06T07:48:05.627Z,1.43
2023-03-06T07:58:08.506Z,1.09
2023-03-06T08:08:11.125Z,0.81
2023-03-06T08:18:13.161Z,0.60
2023-03-06T08:28:15.265Z,1.91
2023-03-06T08:38:17.430Z,1.16
2023-03-06T08:48:19.526Z,0.77
2023-03-06T08:58:21.604Z,1.13
2023-03-06T09:08:23.871Z,1.48
2023-03-06T09:18:25.988Z,1.27
2023-03-06T09:28:28.464Z,0.58
2023-03-06T09:38:30.537Z,1.18
2023-03-06T09:48:43.703Z,0.98
2023-03-06T09:58:51.388Z,1.91
2023-03-06T10:08:59.400Z,1.14
2023-03-06T10:19:10.667Z,1.64
2023-03-06T10:29:12.634Z,1.71
2023-03-06T10:39:20.205Z,2.48
2023-03-06T10:49:36.602Z,1.88
2023-03-06T10:59:51.967Z,1.83
2023-03-06T11:09:57.002Z,1.72
2023-03-06T11:20:14.504Z,2.18
2023-03-06T11:30:20.426Z,2.73
2023-03-06T11:40:36.707Z,2.33
2023-03-06T11:50:42.336Z,1.99
2023-03-06T12:00:57.943Z,2.43
2023-03-06T12:11:05.925Z,2.58
2023-03-06T12:21:35.367Z,3.63
2023-03-06T12:32:00.666Z,3.75
2023-03-06T12:42:22.899Z,3.94
2023-03-06T12:52:30.522Z,3.73
2023-03-06T13:02:39.679Z,3.44
2023-03-06T13:12:49.743Z,2.47
2023-03-06T13:22:51.829Z,3.51
2023-03-06T13:32:55.100Z,3.11
2023-03-06T13:43:03.854Z,2.90
2023-03-06T13:53:24.358Z,2.62
2023-03-06T14:04:04.977Z,3.19
2023-03-06T14:14:09.516Z,3.47
2023-03-06T14:24:16.620Z,3.27
2023-03-06T14:34:22.536Z,3.94
2023-03-06T14:44:26.415Z,4.53
2023-03-06T14:54:32.563Z,3.77
2023-03-06T15:04:40.933Z,3.57
2023-03-06T15:14:57.341Z,3.50
2023-03-06T15:25:19.771Z,4.33
2023-03-06T15:35:31.808Z,3.61
2023-03-06T15:45:34.874Z,3.97
2023-03-06T15:55:37.299Z,3.64
2023-03-06T16:05:39.480Z,3.85
2023-03-06T16:15:47.378Z,2.94
2023-03-06T16:25:49.636Z,2.80
2023-03-06T16:35:52.177Z,2.56
2023-03-06T16:45:54.437Z,1.91
2023-03-06T16:55:56.628Z,2.37
2023-03-06T17:05:58.705Z,2.99
2023-03-06T17:16:01.972Z,2.89
2023-03-06T17:26:12.794Z,3.06
2023-03-06T17:36:16.020Z,2.92
2023-03-06T17:46:18.422Z,2.17
2023-03-06T17:56:20.601Z,2.84
2023-03-06T18:06:23.278Z,2.35
2023-03-06T18:16:26.565Z,2.32
2023-03-06T18:26:29.787Z,2.43
2023-03-06T18:36:32.789Z,1.97
2023-03-06T18:46:37.568Z,1.68
2023-03-06T18:56:44.221Z,1.59
2023-03-06T19:06:46.409Z,2.18
2023-03-06T19:16:48.609Z,2.21
2023-03-06T19:26:50.942Z,2.51
2023-03-06T19:36:53.077Z,2.00
2023-03-06T19:46:55.248Z,1.96
2023-03-06T19:57:04.086Z,1.75
2023-03-06T20:07:06.644Z,1.46
2023-03-06T20:17:08.943Z,1.36
2023-03-06T20:27:11.320Z,1.80
2023-03-06T20:37:13.381Z,0.90
2023-03-06T20:47:15.530Z,1.64
2023-03-06T20:57:17.781Z,1.17
2023-03-06T21:07:19.915Z,1.28
2023-03-06T21:17:22.148Z,0.52
2023-03-06T21:27:24.379Z,0.43
2023-03-06T21:37:26.523Z,0.62
2023-03-06T21:47:28.566Z,0.14
2023-03-06T21:57:32.776Z,0.40
2023-03-06T22:07:36.315Z,0.04
2023-03-06T22:17:39.678Z,-0.06
2023-03-06T22:27:41.735Z,-0.01
2023-03-06T22:37:43.886Z,-0.21
2023-03-06T22:47:45.948Z,-0.00
2023-03-06T22:57:48.058Z,0.08
2023-03-06T23:07:50.149Z,0.02
2023-03-06T23:17:52.223Z,-0.46
2023-03-06T23:28:13.095Z,-0.73
2023-03-06T23:38:15.211Z,0.02
2023-03-06T23:48:17.295Z,-0.03
2023-03-06T23:58:19.590Z,-0.68
